Time;durP1;ratioP1;P1;durP2;ratioP2;P2;SDS_P1;SDS_P2;PMS_P1;PMS_P2;Temp;Humidity;BMP_temperature;BMP_pressure;BME280_temperature;BME280_humidity;BME280_pressure;Samples;Min_cycle;Max_cycle;Signal;HPM_P1;HPM_P2
2022/04/27 00:02:10;;;;;;;10.90;3.90;;;10.10;99.90;;;;;;5032721;28;20448;-70
2022/04/27 00:04:37;;;;;;;5.70;3.77;;;10.10;99.90;;;;;;5039016;28;20437;-69
2022/04/27 00:07:06;;;;;;;4.57;3.53;;;10.10;99.90;;;;;;5039562;28;20465;-68
2022/04/27 00:09:33;;;;;;;4.37;3.70;;;10.20;99.90;;;;;;5054334;28;20479;-69
2022/04/27 00:12:01;;;;;;;8.80;4.03;;;10.20;99.90;;;;;;5048451;28;20488;-70
2022/04/27 00:14:29;;;;;;;5.50;3.47;;;10.10;99.90;;;;;;5046030;28;20422;-69
2022/04/27 00:16:56;;;;;;;4.67;2.83;;;10.20;99.90;;;;;;5037379;28;20447;-69
2022/04/27 00:19:23;;;;;;;4.67;3.73;;;10.00;99.90;;;;;;5040528;28;20536;-69
2022/04/27 00:21:50;;;;;;;4.80;3.70;;;10.00;99.90;;;;;;5042910;28;20422;-69
2022/04/27 00:24:17;;;;;;;5.57;3.83;;;10.10;99.90;;;;;;5042779;28;20801;-69
2022/04/27 00:26:44;;;;;;;4.50;3.10;;;10.10;99.90;;;;;;5042489;28;20466;-69
2022/04/27 00:29:10;;;;;;;20.00;2.90;;;10.00;99.90;;;;;;5039262;28;20458;-70
2022/04/27 00:31:38;;;;;;;4.67;3.57;;;9.90;99.90;;;;;;5036047;28;20484;-69
2022/04/27 00:34:05;;;;;;;3.30;2.30;;;9.70;99.90;;;;;;5044615;28;20485;-70
2022/04/27 00:36:32;;;;;;;3.30;2.33;;;9.70;99.90;;;;;;5050451;28;20463;-70
2022/04/27 00:38:59;;;;;;;3.10;2.80;;;9.80;99.90;;;;;;5036691;28;21027;-70
2022/04/27 00:41:26;;;;;;;4.80;3.37;;;9.80;99.90;;;;;;5043212;28;20453;-70
2022/04/27 00:43:53;;;;;;;4.60;2.80;;;9.70;99.90;;;;;;5037633;28;20460;-69
2022/04/27 00:46:19;;;;;;;4.80;2.83;;;9.80;99.90;;;;;;5047234;28;20467;-70
2022/04/27 00:48:47;;;;;;;5.73;3.50;;;9.70;99.90;;;;;;5044304;28;20467;-70
2022/04/27 00:51:17;;;;;;;5.17;4.20;;;9.80;99.90;;;;;;5037890;28;20486;-69
2022/04/27 00:53:44;;;;;;;4.77;3.20;;;9.90;99.90;;;;;;5052758;28;20441;-69
2022/04/27 00:56:11;;;;;;;12.33;3.80;;;9.90;99.90;;;;;;5042744;28;20493;-69
2022/04/27 00:58:37;;;;;;;8.87;4.10;;;9.90;99.90;;;;;;5046907;28;20439;-70
2022/04/27 01:01:04;;;;;;;8.13;3.20;;;9.70;99.90;;;;;;5041938;28;20483;-70
2022/04/27 01:03:33;;;;;;;9.10;4.10;;;9.60;99.90;;;;;;5058636;28;20460;-70
2022/04/27 01:06:03;;;;;;;4.77;3.30;;;9.60;99.90;;;;;;5049800;28;20470;-70
2022/04/27 01:08:29;;;;;;;16.80;5.10;;;9.60;99.90;;;;;;5053556;28;20466;-70
2022/04/27 01:10:59;;;;;;;5.03;3.23;;;9.50;99.90;;;;;;5050638;28;20483;-69
2022/04/27 01:13:27;;;;;;;4.63;3.67;;;9.40;99.90;;;;;;5044874;28;20479;-69
2022/04/27 01:15:54;;;;;;;4.47;3.47;;;9.40;99.90;;;;;;5043193;28;20464;-68
2022/04/27 01:18:21;;;;;;;5.57;3.30;;;9.30;99.90;;;;;;5048229;28;20438;-69
2022/04/27 01:20:50;;;;;;;5.67;3.97;;;9.30;99.90;;;;;;5050376;28;20832;-69
2022/04/27 01:23:17;;;;;;;6.97;3.17;;;9.10;99.90;;;;;;5039221;28;20877;-69
2022/04/27 01:25:49;;;;;;;5.30;3.77;;;9.10;99.90;;;;;;5047895;28;20458;-69
2022/04/27 01:28:17;;;;;;;5.27;3.83;;;9.10;99.90;;;;;;5038754;28;20454;-70
2022/04/27 01:30:44;;;;;;;6.03;3.40;;;9.20;99.90;;;;;;5040042;28;22039;-70
2022/04/27 01:33:12;;;;;;;12.63;4.90;;;9.30;99.90;;;;;;5044480;28;20475;-70
2022/04/27 01:35:40;;;;;;;4.50;3.80;;;9.30;99.90;;;;;;5030291;28;20858;-69
2022/04/27 01:38:08;;;;;;;6.20;3.57;;;9.10;99.90;;;;;;5040709;28;20451;-69
2022/04/27 01:40:35;;;;;;;5.27;3.80;;;9.00;99.90;;;;;;5037174;28;20502;-70
2022/04/27 01:43:02;;;;;;;5.03;3.03;;;9.00;99.90;;;;;;5038101;28;20848;-70
2022/04/27 01:45:29;;;;;;;5.73;3.33;;;8.90;99.90;;;;;;5037814;28;20459;-70
2022/04/27 01:47:57;;;;;;;7.47;3.67;;;8.90;99.90;;;;;;5048147;28;20459;-69
2022/04/27 01:50:23;;;;;;;7.00;3.50;;;8.90;99.90;;;;;;5040944;28;20475;-69
2022/04/27 01:55:37;;;;;;;4.40;3.50;;;8.80;99.90;;;;;;5045204;28;20581;-69
2022/04/27 01:58:03;;;;;;;5.20;3.90;;;8.90;99.90;;;;;;5040281;28;20509;-69
2022/04/27 02:00:30;;;;;;;5.80;3.27;;;8.90;99.90;;;;;;5046828;28;20478;-70
2022/04/27 02:02:57;;;;;;;4.70;3.97;;;8.90;99.90;;;;;;5040708;28;20517;-70
2022/04/27 02:05:23;;;;;;;6.37;4.10;;;8.80;99.90;;;;;;5038837;28;20456;-69
2022/04/27 02:07:50;;;;;;;4.43;3.30;;;8.80;99.90;;;;;;5039230;28;20442;-68
2022/04/27 02:10:17;;;;;;;7.47;3.93;;;8.70;99.90;;;;;;5035748;28;20541;-69
2022/04/27 02:12:45;;;;;;;5.00;4.40;;;8.50;99.90;;;;;;5040913;28;20487;-69
2022/04/27 02:15:12;;;;;;;7.30;4.33;;;8.30;99.90;;;;;;5047189;28;20912;-70
2022/04/27 02:17:39;;;;;;;5.90;3.43;;;8.20;99.90;;;;;;5042960;28;20467;-70
2022/04/27 02:20:06;;;;;;;5.07;3.53;;;8.20;99.90;;;;;;5038374;28;20478;-70
2022/04/27 02:22:34;;;;;;;6.27;4.53;;;8.30;99.90;;;;;;5034972;28;20550;-70
2022/04/27 02:25:01;;;;;;;9.70;6.40;;;8.30;99.90;;;;;;5042194;28;21060;-69
2022/04/27 02:27:28;;;;;;;4.70;3.43;;;8.30;99.90;;;;;;5045095;28;20975;-70
2022/04/27 02:29:56;;;;;;;5.43;3.70;;;8.30;99.90;;;;;;5057847;22;20502;-68
2022/04/27 02:32:23;;;;;;;3.33;2.83;;;8.30;99.90;;;;;;5036599;28;20491;-68
2022/04/27 02:34:51;;;;;;;8.23;4.07;;;8.30;99.90;;;;;;5035359;28;20512;-68
2022/04/27 02:37:18;;;;;;;5.20;3.83;;;8.00;99.90;;;;;;5034181;28;20438;-68
2022/04/27 02:39:45;;;;;;;6.40;3.83;;;8.00;99.90;;;;;;5032914;28;20948;-69
2022/04/27 02:42:11;;;;;;;4.77;3.83;;;8.00;99.90;;;;;;5038663;28;20458;-68
2022/04/27 02:44:38;;;;;;;6.00;3.90;;;7.70;99.90;;;;;;5042173;28;20509;-68
2022/04/27 02:47:07;;;;;;;8.93;3.33;;;7.50;99.90;;;;;;5038341;28;20460;-67
2022/04/27 02:52:14;;;;;;;5.30;4.10;;;7.20;99.90;;;;;;5009369;28;20549;-69
2022/04/27 02:54:41;;;;;;;5.87;4.10;;;7.20;99.90;;;;;;5035980;28;20485;-69
2022/04/27 02:57:08;;;;;;;5.23;2.80;;;7.10;99.90;;;;;;5040778;28;20426;-68
2022/04/27 02:59:34;;;;;;;6.93;3.33;;;7.00;99.90;;;;;;5041957;28;20863;-68
2022/04/27 03:02:01;;;;;;;10.70;4.33;;;7.10;99.90;;;;;;5034885;28;20456;-69
2022/04/27 03:04:29;;;;;;;3.43;3.00;;;7.00;99.90;;;;;;5040616;28;20441;-67
2022/04/27 03:06:56;;;;;;;6.17;4.23;;;7.40;99.90;;;;;;5041492;28;20430;-68
2022/04/27 03:09:23;;;;;;;4.53;3.40;;;7.50;99.90;;;;;;5046117;28;20448;-68
2022/04/27 03:11:50;;;;;;;5.03;4.43;;;7.50;99.90;;;;;;5043206;28;20488;-68
2022/04/27 03:14:16;;;;;;;15.43;4.27;;;7.60;99.90;;;;;;5035162;28;21322;-68
2022/04/27 03:16:44;;;;;;;7.87;4.63;;;7.60;99.90;;;;;;5045735;28;20478;-68
2022/04/27 03:19:11;;;;;;;3.97;3.57;;;7.60;99.90;;;;;;5037333;28;20543;-68
2022/04/27 03:21:39;;;;;;;5.27;4.50;;;7.60;99.90;;;;;;5044316;28;20993;-67
2022/04/27 03:24:06;;;;;;;6.87;4.67;;;7.60;99.90;;;;;;5030697;28;20518;-68
2022/04/27 03:26:33;;;;;;;6.17;4.43;;;7.70;99.90;;;;;;5041485;28;20494;-68
2022/04/27 03:29:00;;;;;;;10.10;4.93;;;7.80;99.90;;;;;;5039730;28;20953;-68
2022/04/27 03:31:26;;;;;;;4.90;3.70;;;7.80;99.90;;;;;;5039237;28;20494;-67
2022/04/27 03:33:53;;;;;;;6.07;4.13;;;7.50;99.90;;;;;;5043928;28;20466;-67
2022/04/27 03:36:20;;;;;;;5.03;3.60;;;7.40;99.90;;;;;;5038585;28;20497;-67
2022/04/27 03:38:49;;;;;;;10.23;4.53;;;7.30;99.90;;;;;;5035423;28;21786;-67
2022/04/27 03:41:19;;;;;;;5.33;3.73;;;7.50;99.90;;;;;;5043376;28;20475;-69
2022/04/27 03:43:46;;;;;;;5.37;3.90;;;7.40;99.90;;;;;;5041842;28;20937;-68
2022/04/27 03:46:12;;;;;;;8.60;3.97;;;7.50;99.90;;;;;;5034251;28;20464;-67
2022/04/27 03:48:39;;;;;;;5.83;4.40;;;7.50;99.90;;;;;;5038588;28;20499;-68
2022/04/27 03:51:06;;;;;;;20.07;4.60;;;7.60;99.90;;;;;;5041424;28;20451;-67
2022/04/27 03:53:32;;;;;;;12.43;6.27;;;7.70;99.90;;;;;;5050840;28;20540;-67
2022/04/27 03:56:00;;;;;;;4.43;3.50;;;7.70;99.90;;;;;;5036564;28;20936;-68
2022/04/27 03:58:27;;;;;;;5.83;4.13;;;7.60;99.90;;;;;;5041804;28;21017;-68
2022/04/27 04:00:54;;;;;;;5.40;4.43;;;7.50;99.90;;;;;;5038897;28;20480;-67
2022/04/27 04:03:20;;;;;;;6.60;3.63;;;7.40;99.90;;;;;;5037308;28;20438;-68
2022/04/27 04:05:47;;;;;;;6.27;4.23;;;7.30;99.90;;;;;;5033957;28;20888;-69
2022/04/27 04:08:14;;;;;;;8.20;3.13;;;7.30;99.90;;;;;;5036797;28;20481;-70
2022/04/27 04:10:40;;;;;;;8.07;4.67;;;7.30;99.90;;;;;;5036247;28;20927;-70
2022/04/27 04:13:08;;;;;;;6.33;3.90;;;7.20;99.90;;;;;;5041231;28;20552;-68
2022/04/27 04:15:37;;;;;;;6.80;4.40;;;7.20;99.90;;;;;;5039144;28;20991;-69
2022/04/27 04:18:04;;;;;;;5.83;4.30;;;7.20;99.90;;;;;;5038987;28;20548;-69
2022/04/27 04:20:31;;;;;;;11.90;4.70;;;7.20;99.90;;;;;;5036191;28;21984;-69
2022/04/27 04:22:58;;;;;;;6.83;3.33;;;7.20;99.90;;;;;;5035745;28;20456;-69
2022/04/27 04:30:57;;;;;;;6.07;4.17;;;7.50;99.90;;;;;;5038678;28;20498;-70
2022/04/27 04:33:23;;;;;;;9.77;4.07;;;7.50;99.90;;;;;;5033013;28;20466;-69
2022/04/27 04:35:51;;;;;;;7.47;3.77;;;7.50;99.90;;;;;;5032826;28;20417;-69
2022/04/27 04:38:18;;;;;;;6.50;4.60;;;7.60;99.90;;;;;;5037331;28;20748;-67
2022/04/27 04:40:45;;;;;;;12.23;5.40;;;7.50;99.90;;;;;;5035277;28;20458;-69
2022/04/27 04:43:13;;;;;;;7.03;4.90;;;7.60;99.90;;;;;;5039052;28;20851;-68
2022/04/27 04:45:40;;;;;;;9.20;4.70;;;7.50;99.90;;;;;;5037037;28;21136;-68
2022/04/27 04:48:08;;;;;;;11.27;5.13;;;7.50;99.90;;;;;;5029036;28;20455;-68
2022/04/27 04:50:35;;;;;;;6.83;5.00;;;7.40;99.90;;;;;;5035190;28;20487;-68
2022/04/27 04:53:01;;;;;;;6.40;4.03;;;7.50;99.90;;;;;;5037301;28;20513;-67
2022/04/27 04:55:29;;;;;;;5.40;4.47;;;7.60;99.90;;;;;;5033937;28;20437;-68
2022/04/27 04:57:56;;;;;;;7.07;4.50;;;7.50;99.90;;;;;;5028621;28;20839;-68
2022/04/27 05:00:24;;;;;;;8.33;5.07;;;7.60;99.90;;;;;;5041833;28;20556;-67
2022/04/27 05:02:50;;;;;;;8.27;5.17;;;7.60;99.90;;;;;;5033965;28;20465;-67
2022/04/27 05:05:17;;;;;;;6.30;4.57;;;7.50;99.90;;;;;;5037855;28;20462;-68
2022/04/27 05:07:44;;;;;;;7.10;4.83;;;7.60;99.90;;;;;;5034352;28;20461;-69
2022/04/27 05:10:11;;;;;;;7.47;4.80;;;7.70;99.90;;;;;;5037306;28;21168;-69
2022/04/27 05:12:38;;;;;;;8.83;5.30;;;7.80;99.90;;;;;;5038519;28;20555;-70
2022/04/27 05:15:06;;;;;;;7.27;3.80;;;7.90;99.90;;;;;;5040739;28;21145;-68
2022/04/27 05:17:34;;;;;;;10.53;5.10;;;7.80;99.90;;;;;;5044810;28;20441;-67
2022/04/27 05:20:01;;;;;;;11.60;4.60;;;8.00;99.90;;;;;;5037911;28;20434;-67
2022/04/27 05:22:34;;;;;;;6.60;4.03;;;8.20;99.90;;;;;;5048886;28;20528;-68
2022/04/27 05:25:03;;;;;;;8.83;4.20;;;8.30;99.90;;;;;;5038224;28;20486;-69
2022/04/27 05:27:29;;;;;;;7.07;4.83;;;8.70;99.90;;;;;;5043262;28;20543;-68
2022/04/27 05:32:43;;;;;;;9.40;4.07;;;9.00;99.90;;;;;;5046174;28;20464;-69
2022/04/27 05:35:10;;;;;;;7.80;5.10;;;9.20;99.90;;;;;;5042081;28;20430;-68
2022/04/27 05:37:37;;;;;;;16.13;4.50;;;9.50;99.90;;;;;;5035767;28;22590;-69
2022/04/27 05:40:07;;;;;;;7.83;4.93;;;9.90;99.90;;;;;;5037576;28;20555;-69
2022/04/27 05:42:35;;;;;;;9.27;4.50;;;9.90;99.90;;;;;;5044395;28;20551;-67
2022/04/27 05:45:01;;;;;;;9.23;6.03;;;10.10;99.90;;;;;;5051355;28;20935;-67
2022/04/27 05:47:28;;;;;;;7.70;3.90;;;10.50;99.90;;;;;;5038480;28;20929;-67
2022/04/27 05:49:56;;;;;;;10.10;6.03;;;10.50;99.90;;;;;;5039422;28;20455;-68
2022/04/27 05:52:23;;;;;;;7.03;4.93;;;11.00;99.90;;;;;;5040628;28;20487;-68
2022/04/27 05:54:51;;;;;;;9.90;5.63;;;11.20;99.90;;;;;;5035715;28;20503;-67
2022/04/27 05:57:18;;;;;;;7.30;5.40;;;11.60;99.90;;;;;;5032850;28;20432;-67
2022/04/27 05:59:47;;;;;;;13.37;4.50;;;11.80;99.90;;;;;;5042943;28;20491;-67
2022/04/27 06:02:13;;;;;;;13.23;6.30;;;12.10;99.90;;;;;;5036813;28;20482;-69
2022/04/27 06:04:40;;;;;;;8.23;4.77;;;12.20;99.90;;;;;;5041951;28;20523;-68
2022/04/27 06:07:08;;;;;;;6.20;5.07;;;12.40;99.90;;;;;;5041412;28;20463;-69
2022/04/27 06:09:35;;;;;;;9.00;5.77;;;12.60;99.90;;;;;;5039425;28;20460;-69
2022/04/27 06:12:02;;;;;;;6.40;5.03;;;12.50;99.90;;;;;;5042219;28;20468;-68
2022/04/27 06:14:29;;;;;;;8.10;4.33;;;12.60;99.90;;;;;;5042308;28;20535;-68
2022/04/27 06:16:55;;;;;;;7.63;5.80;;;12.40;99.90;;;;;;5040805;28;20459;-69
2022/04/27 06:19:22;;;;;;;8.07;5.73;;;12.50;99.90;;;;;;5040834;28;20847;-69
2022/04/27 06:21:49;;;;;;;15.67;5.47;;;12.50;99.90;;;;;;5040514;28;20653;-68
2022/04/27 06:24:17;;;;;;;6.80;5.07;;;12.80;99.90;;;;;;5047327;28;20776;-68
2022/04/27 06:26:43;;;;;;;8.23;6.50;;;13.20;99.90;;;;;;5043965;28;20460;-68
2022/04/27 06:29:10;;;;;;;6.33;3.93;;;13.50;99.90;;;;;;5040263;28;20523;-68
2022/04/27 06:31:37;;;;;;;5.60;4.47;;;13.70;99.90;;;;;;5044148;28;20492;-68
2022/04/27 06:34:04;;;;;;;6.50;5.17;;;13.70;99.90;;;;;;5046299;28;20993;-69
2022/04/27 06:36:30;;;;;;;8.43;6.07;;;14.10;99.90;;;;;;5037837;28;20487;-68
2022/04/27 06:38:57;;;;;;;6.67;5.43;;;14.60;99.90;;;;;;5028314;28;20456;-67
2022/04/27 06:41:25;;;;;;;5.93;5.30;;;14.80;99.90;;;;;;5042722;28;20538;-68
2022/04/27 06:43:51;;;;;;;9.30;5.60;;;14.30;99.90;;;;;;5036837;28;21039;-69
2022/04/27 06:46:18;;;;;;;12.10;7.97;;;14.80;99.90;;;;;;5036522;28;20891;-68
2022/04/27 06:48:45;;;;;;;12.13;5.40;;;15.20;99.90;;;;;;5037470;28;20946;-68
2022/04/27 06:51:12;;;;;;;8.80;5.20;;;15.50;99.90;;;;;;5042843;28;20472;-68
2022/04/27 06:53:39;;;;;;;7.17;4.70;;;15.10;99.90;;;;;;5040066;28;20562;-69
2022/04/27 06:56:05;;;;;;;7.53;5.10;;;15.30;99.90;;;;;;5043825;28;20494;-70
2022/04/27 06:58:33;;;;;;;7.33;5.00;;;15.70;99.90;;;;;;5040153;28;20454;-68
2022/04/27 07:01:00;;;;;;;9.23;5.80;;;15.70;99.90;;;;;;5029312;28;20488;-68
2022/04/27 07:03:28;;;;;;;5.50;5.00;;;15.80;99.90;;;;;;5029286;28;20521;-68
2022/04/27 07:05:54;;;;;;;6.57;5.17;;;16.30;99.90;;;;;;5033887;28;20458;-69
2022/04/27 07:08:21;;;;;;;7.13;4.67;;;16.70;99.90;;;;;;5039753;28;20455;-69
2022/04/27 07:10:49;;;;;;;6.27;4.77;;;17.00;99.90;;;;;;5037862;28;20472;-68
2022/04/27 07:13:15;;;;;;;5.30;3.40;;;16.80;99.90;;;;;;5035103;28;20455;-67
2022/04/27 07:15:43;;;;;;;6.10;3.83;;;16.50;99.90;;;;;;5043533;28;20598;-68
2022/04/27 07:18:10;;;;;;;6.10;4.63;;;16.40;99.90;;;;;;5042770;28;20949;-68
2022/04/27 07:20:39;;;;;;;4.90;3.60;;;15.80;99.90;;;;;;5037922;28;20478;-69
2022/04/27 07:23:05;;;;;;;4.60;4.20;;;15.80;99.90;;;;;;5035332;28;20519;-69
2022/04/27 07:25:32;;;;;;;7.50;5.00;;;16.20;99.90;;;;;;5041023;28;20538;-68
2022/04/27 07:27:59;;;;;;;5.20;4.70;;;16.40;99.90;;;;;;5037983;28;20495;-70
2022/04/27 07:30:26;;;;;;;4.27;3.23;;;16.60;99.90;;;;;;5039578;28;20484;-69
2022/04/27 07:32:54;;;;;;;6.00;4.17;;;16.20;99.90;;;;;;5041073;28;20435;-69
2022/04/27 07:35:20;;;;;;;6.10;5.20;;;16.40;99.90;;;;;;5036198;28;20491;-69
2022/04/27 07:37:47;;;;;;;4.40;3.57;;;16.70;99.90;;;;;;5041829;28;20450;-69
2022/04/27 07:40:14;;;;;;;13.80;4.50;;;17.10;99.90;;;;;;5033944;28;20899;-69
2022/04/27 07:42:41;;;;;;;11.10;4.40;;;17.40;99.90;;;;;;5041660;28;20489;-68
2022/04/27 07:45:08;;;;;;;6.67;5.00;;;17.40;99.90;;;;;;5035885;28;20514;-68
2022/04/27 07:47:42;;;;;;;8.17;4.40;;;17.80;99.90;;;;;;5040130;28;20580;-68
2022/04/27 07:50:11;;;;;;;13.27;5.30;;;17.40;99.90;;;;;;5041889;28;20910;-68
2022/04/27 07:52:38;;;;;;;5.67;3.73;;;17.80;99.90;;;;;;5039868;28;20456;-69
2022/04/27 07:55:06;;;;;;;5.70;4.00;;;18.30;99.90;;;;;;5034713;28;20559;-70
2022/04/27 07:57:33;;;;;;;6.50;4.90;;;18.50;99.90;;;;;;5034948;28;20560;-69
2022/04/27 08:00:01;;;;;;;5.13;3.67;;;18.90;99.90;;;;;;5035939;28;20875;-66
2022/04/27 08:02:27;;;;;;;4.07;3.67;;;19.00;99.00;;;;;;5032982;28;20456;-68
2022/04/27 08:04:55;;;;;;;6.83;3.90;;;18.50;99.60;;;;;;5040883;28;20571;-68
2022/04/27 08:07:23;;;;;;;10.20;4.63;;;18.60;99.90;;;;;;5038817;28;21421;-67
2022/04/27 08:09:49;;;;;;;5.67;4.00;;;18.60;99.40;;;;;;5037795;28;20456;-67
2022/04/27 08:12:16;;;;;;;10.53;4.50;;;18.80;99.20;;;;;;5039338;28;21054;-67
2022/04/27 08:14:43;;;;;;;6.13;4.07;;;18.40;98.10;;;;;;5041378;28;20487;-67
2022/04/27 08:17:09;;;;;;;7.03;3.90;;;18.80;99.40;;;;;;5043946;28;20802;-67
2022/04/27 08:19:36;;;;;;;8.83;4.40;;;19.20;97.20;;;;;;5038723;28;20517;-68
2022/04/27 08:22:06;;;;;;;6.37;3.90;;;19.10;98.20;;;;;;5038044;28;20484;-68
2022/04/27 08:24:40;;;;;;;3.23;2.83;;;19.70;96.50;;;;;;5037848;28;20454;-68
2022/04/27 08:27:06;;;;;;;7.97;4.10;;;20.20;95.00;;;;;;5043983;28;20456;-67
2022/04/27 08:29:33;;;;;;;7.53;4.50;;;19.80;94.30;;;;;;5031964;28;20469;-69
2022/04/27 08:32:07;;;;;;;11.93;4.30;;;20.30;94.10;;;;;;5040355;22;20517;-76
2022/04/27 08:34:35;;;;;;;6.20;3.70;;;20.90;90.90;;;;;;5027627;28;20509;-77
2022/04/27 08:37:05;;;;;;;42.10;9.40;;;21.00;90.30;;;;;;5026598;28;20457;-77
2022/04/27 08:39:35;;;;;;;23.87;6.20;;;20.70;91.40;;;;;;5022245;28;20489;-78
2022/04/27 08:42:02;;;;;;;122.77;18.63;;;20.70;92.50;;;;;;5011816;28;20482;-75
2022/04/27 08:44:29;;;;;;;147.30;22.17;;;21.30;91.80;;;;;;5000352;28;20513;-77
2022/04/27 08:46:58;;;;;;;7.50;4.43;;;21.10;87.80;;;;;;4997795;28;21152;-77
2022/04/27 08:49:35;;;;;;;8.97;3.47;;;20.70;87.10;;;;;;5002233;28;20840;-77
2022/04/27 08:52:02;;;;;;;76.00;14.83;;;20.50;88.10;;;;;;5004738;28;20481;-77
2022/04/27 08:54:33;;;;;;;5.43;4.77;;;21.00;87.10;;;;;;4997772;28;20475;-77
2022/04/27 08:57:01;;;;;;;129.33;17.07;;;21.00;87.70;;;;;;5007730;28;20545;-76
2022/04/27 08:59:31;;;;;;;61.73;8.60;;;21.10;87.80;;;;;;5005898;28;20726;-78
2022/04/27 09:02:19;;;;;;;5.77;3.90;;;20.50;87.90;;;;;;5007306;28;20483;-76
2022/04/27 09:05:06;;;;;;;4.10;3.10;;;21.10;85.20;;;;;;5007435;28;21388;-77
2022/04/27 09:07:36;;;;;;;6.73;3.97;;;21.80;80.00;;;;;;5009432;28;21080;-76
2022/04/27 09:10:04;;;;;;;8.90;4.00;;;21.70;78.30;;;;;;5001663;28;20549;-76
2022/04/27 09:12:33;;;;;;;24.43;11.70;;;21.50;82.00;;;;;;5001509;28;20638;-77
2022/04/27 09:15:05;;;;;;;7.23;5.40;;;21.60;82.60;;;;;;5007459;28;20542;-76
2022/04/27 09:23:02;;;;;;;14.87;8.17;;;21.60;76.00;;;;;;5001167;28;20469;-76
2022/04/27 09:25:38;;;;;;;28.40;10.37;;;22.30;76.80;;;;;;5004626;28;20481;-76
2022/04/27 09:28:06;;;;;;;6.37;3.43;;;21.90;76.70;;;;;;5004566;28;20470;-77
2022/04/27 09:30:35;;;;;;;5.23;3.93;;;22.50;74.40;;;;;;5005749;28;20462;-77
2022/04/27 09:33:02;;;;;;;8.63;5.03;;;22.50;73.70;;;;;;5013662;28;20469;-76
2022/04/27 09:35:34;;;;;;;9.63;4.70;;;21.00;75.50;;;;;;4999363;28;20514;-74
2022/04/27 09:38:16;;;;;;;10.00;5.90;;;20.90;76.70;;;;;;5008931;28;20905;-75
2022/04/27 09:40:48;;;;;;;6.13;4.30;;;22.10;77.10;;;;;;5003729;28;20469;-76
2022/04/27 09:43:17;;;;;;;10.30;5.33;;;23.00;74.40;;;;;;5003159;28;20924;-77
2022/04/27 09:45:45;;;;;;;9.70;5.00;;;23.70;74.80;;;;;;5010362;28;20573;-77
2022/04/27 09:48:18;;;;;;;19.17;5.37;;;24.40;76.30;;;;;;5015767;28;20904;-77
2022/04/27 09:50:48;;;;;;;16.10;7.57;;;25.60;69.70;;;;;;5018057;28;20527;-77
2022/04/27 09:53:15;;;;;;;5.10;4.33;;;25.10;64.40;;;;;;5004975;28;20546;-78
2022/04/27 09:55:46;;;;;;;4.87;4.37;;;24.20;65.00;;;;;;5010339;28;20487;-77
2022/04/27 09:58:14;;;;;;;4.20;3.80;;;24.60;64.40;;;;;;5005026;28;20483;-76
2022/04/27 10:00:44;;;;;;;5.90;5.13;;;24.70;63.60;;;;;;5004915;28;20494;-77
2022/04/27 10:03:14;;;;;;;4.97;4.27;;;24.70;63.20;;;;;;4996998;28;20459;-76
2022/04/27 10:05:41;;;;;;;5.83;4.80;;;24.70;63.50;;;;;;5009158;28;20566;-76
2022/04/27 10:08:11;;;;;;;6.03;4.70;;;25.70;60.40;;;;;;5004308;28;20467;-77
2022/04/27 10:10:39;;;;;;;7.00;5.00;;;26.10;63.30;;;;;;5003479;28;20499;-76
2022/04/27 10:13:13;;;;;;;5.57;4.47;;;25.30;59.60;;;;;;5013602;28;20518;-76
2022/04/27 10:15:47;;;;;;;4.90;4.50;;;24.40;61.10;;;;;;5015167;28;20482;-77
2022/04/27 10:18:16;;;;;;;10.40;5.30;;;24.20;62.50;;;;;;5011837;28;20455;-76
2022/04/27 10:20:44;;;;;;;7.33;4.57;;;24.10;62.80;;;;;;5007660;28;21713;-76
2022/04/27 10:23:22;;;;;;;6.83;5.10;;;24.40;62.00;;;;;;5013228;28;20570;-76
2022/04/27 10:26:32;;;;;;;4.90;4.40;;;25.10;61.90;;;;;;5016882;28;21257;-75
2022/04/27 10:29:02;;;;;;;6.07;5.27;;;25.60;57.80;;;;;;4953398;28;20557;-76
2022/04/27 10:32:10;;;;;;;4.90;4.37;;;25.90;59.80;;;;;;4945074;28;20517;-76
2022/04/27 10:34:38;;;;;;;4.47;4.07;;;26.40;57.00;;;;;;5005308;28;20488;-78
2022/04/27 10:37:11;;;;;;;8.87;5.50;;;27.30;57.30;;;;;;5006242;28;20486;-75
2022/04/27 10:39:37;;;;;;;9.70;5.13;;;26.70;55.10;;;;;;5015324;28;20452;-77
2022/04/27 10:42:34;;;;;;;5.83;5.20;;;26.40;57.90;;;;;;5007687;28;20482;-77
2022/04/27 10:45:14;;;;;;;9.67;5.20;;;25.40;56.60;;;;;;5011376;28;21033;-76
2022/04/27 10:47:45;;;;;;;5.53;4.50;;;25.90;58.80;;;;;;5009566;28;20483;-76
2022/04/27 10:50:28;;;;;;;6.83;4.80;;;26.80;58.90;;;;;;5011419;28;20460;-77
2022/04/27 10:53:01;;;;;;;9.47;6.27;;;26.40;56.40;;;;;;5009482;28;20545;-76
2022/04/27 10:55:48;;;;;;;6.00;5.27;;;26.60;55.30;;;;;;5013964;28;20590;-77
2022/04/27 10:58:17;;;;;;;6.33;5.10;;;26.20;55.80;;;;;;5012499;28;20490;-75
2022/04/27 11:01:18;;;;;;;10.47;5.20;;;26.40;56.20;;;;;;5012202;28;20498;-76
2022/04/27 11:03:56;;;;;;;7.63;4.90;;;26.00;55.70;;;;;;5010186;28;20475;-78
2022/04/27 11:06:27;;;;;;;7.90;6.63;;;25.90;55.20;;;;;;5015401;28;20524;-75
2022/04/27 11:09:09;;;;;;;7.03;5.67;;;26.10;55.70;;;;;;5007897;28;20459;-76
2022/04/27 11:11:52;;;;;;;7.83;6.20;;;26.70;55.00;;;;;;5003886;28;20494;-81
2022/04/27 11:14:28;;;;;;;5.60;4.93;;;25.40;54.50;;;;;;5004708;28;20456;-76
2022/04/27 11:16:55;;;;;;;4.83;4.37;;;25.70;56.50;;;;;;5004275;28;20454;-77
2022/04/27 11:19:35;;;;;;;4.80;4.30;;;25.80;54.80;;;;;;5000378;28;20551;-77
2022/04/27 11:22:13;;;;;;;10.20;4.60;;;26.80;54.20;;;;;;5003001;28;20490;-76
2022/04/27 11:24:44;;;;;;;5.30;3.43;;;27.10;54.00;;;;;;5001266;28;20531;-77
2022/04/27 11:27:13;;;;;;;6.70;4.30;;;28.00;54.30;;;;;;5005652;28;20972;-74
2022/04/27 11:29:39;;;;;;;4.80;3.37;;;28.10;53.10;;;;;;5001973;28;20518;-76
2022/04/27 11:32:18;;;;;;;6.37;4.90;;;27.80;52.70;;;;;;5002133;28;20496;-77
2022/04/27 11:34:49;;;;;;;5.43;4.73;;;26.60;52.10;;;;;;5000299;28;20458;-77
2022/04/27 11:37:18;;;;;;;6.33;4.27;;;26.20;52.20;;;;;;5005988;28;20464;-76
2022/04/27 11:39:50;;;;;;;5.33;4.23;;;26.40;52.80;;;;;;5003058;28;20542;-77
2022/04/27 11:42:18;;;;;;;5.03;4.40;;;26.70;52.70;;;;;;5002474;28;20513;-77
2022/04/27 11:44:53;;;;;;;10.17;5.03;;;27.00;52.30;;;;;;5003928;28;20487;-77
2022/04/27 11:47:34;;;;;;;12.93;3.87;;;26.70;53.50;;;;;;5013351;28;20461;-77
2022/04/27 11:50:04;;;;;;;6.77;4.73;;;27.20;52.30;;;;;;5004765;28;20465;-78
2022/04/27 11:52:37;;;;;;;6.20;4.53;;;26.30;51.40;;;;;;5002418;28;20501;-75
2022/04/27 11:55:10;;;;;;;6.87;5.20;;;24.40;51.70;;;;;;4999167;28;21160;-77
2022/04/27 11:57:38;;;;;;;8.57;4.43;;;22.90;55.00;;;;;;5009691;28;20490;-76
2022/04/27 12:00:07;;;;;;;7.90;5.00;;;23.00;55.70;;;;;;5004020;28;20750;-75
2022/04/27 12:02:37;;;;;;;7.07;5.10;;;22.60;55.60;;;;;;5008374;28;20610;-77
2022/04/27 12:05:07;;;;;;;6.90;4.83;;;22.00;57.10;;;;;;5006055;28;20490;-77
2022/04/27 12:07:38;;;;;;;4.80;3.70;;;22.30;58.20;;;;;;5010612;28;20463;-77
2022/04/27 12:10:07;;;;;;;7.63;4.80;;;23.70;56.90;;;;;;5003453;28;20522;-76
2022/04/27 12:12:34;;;;;;;4.47;4.07;;;23.90;55.30;;;;;;5004572;28;20479;-76
2022/04/27 12:15:07;;;;;;;5.60;4.53;;;24.40;56.80;;;;;;5006295;28;20461;-77
2022/04/27 12:17:51;;;;;;;8.73;4.43;;;25.00;54.60;;;;;;5005819;28;20683;-77
2022/04/27 12:20:37;;;;;;;11.93;5.50;;;25.30;55.10;;;;;;5010777;28;20453;-78
2022/04/27 12:23:10;;;;;;;6.23;5.30;;;25.90;53.70;;;;;;5011727;28;20455;-77
2022/04/27 12:25:46;;;;;;;5.73;5.20;;;25.20;54.80;;;;;;5000883;28;20492;-76
2022/04/27 12:28:14;;;;;;;6.37;5.77;;;23.90;55.00;;;;;;5012881;28;20461;-76
2022/04/27 12:30:43;;;;;;;8.33;5.60;;;23.30;55.20;;;;;;4999961;28;20474;-77
2022/04/27 12:33:11;;;;;;;9.37;6.00;;;23.00;57.10;;;;;;5005210;28;20461;-75
2022/04/27 12:38:27;;;;;;;9.03;5.20;;;25.10;56.20;;;;;;5015452;28;20487;-75
2022/04/27 12:40:54;;;;;;;11.13;7.13;;;26.80;56.10;;;;;;5010677;28;21016;-74
2022/04/27 12:43:23;;;;;;;7.40;5.30;;;27.40;53.00;;;;;;5003409;28;20839;-76
2022/04/27 12:46:09;;;;;;;7.50;6.30;;;27.00;52.70;;;;;;5018904;28;20813;-75
2022/04/27 12:48:38;;;;;;;5.63;5.10;;;27.00;51.90;;;;;;5008099;28;20515;-77
2022/04/27 12:51:10;;;;;;;10.07;5.73;;;26.70;52.30;;;;;;5000020;28;20574;-76
2022/04/27 12:53:37;;;;;;;5.63;5.03;;;26.30;54.20;;;;;;5005241;28;20460;-77
2022/04/27 12:56:19;;;;;;;11.03;6.10;;;25.70;52.80;;;;;;5005771;28;20461;-77
2022/04/27 12:59:03;;;;;;;5.70;5.20;;;24.50;53.10;;;;;;5005388;28;20472;-75
2022/04/27 13:01:33;;;;;;;8.27;5.93;;;23.60;54.20;;;;;;5009544;28;20485;-77
2022/04/27 13:04:01;;;;;;;10.67;6.30;;;24.30;56.30;;;;;;5018252;28;20927;-76
2022/04/27 13:06:31;;;;;;;7.13;6.37;;;25.00;54.80;;;;;;5006563;28;20488;-77
2022/04/27 13:11:55;;;;;;;6.97;6.20;;;25.60;53.90;;;;;;5013691;28;20896;-75
2022/04/27 13:11:56;;;;;;;8.07;5.30;;;25.60;54.00;;;;;;5011652;28;20848;-77
2022/04/27 13:14:23;;;;;;;6.50;5.80;;;25.90;56.00;;;;;;5010850;28;20482;-76
2022/04/27 13:16:49;;;;;;;6.57;5.40;;;27.00;53.60;;;;;;5014433;28;20504;-76
2022/04/27 13:19:16;;;;;;;9.97;6.20;;;27.20;52.70;;;;;;5004201;28;20453;-76
2022/04/27 13:21:47;;;;;;;13.93;6.63;;;26.90;53.40;;;;;;5008957;28;20518;-76